sensor_id;sensor_type;location;lat;lon;timestamp;P1;durP1;ratioP1;P2;durP2;ratioP2
11837;SDS011;5978;51.020;6.764;2023-02-28T00:00:16;3.45;;;3.25;;
11837;SDS011;5978;51.020;6.764;2023-02-28T00:02:42;5.32;;;2.67;;
11837;SDS011;5978;51.020;6.764;2023-02-28T00:05:09;3.85;;;3.40;;
11837;SDS011;5978;51.020;6.764;2023-02-28T00:07:36;4.32;;;2.40;;
11837;SDS011;5978;51.020;6.764;2023-02-28T00:10:03;8.00;;;3.40;;
11837;SDS011;5978;51.020;6.764;2023-02-28T00:12:33;4.45;;;3.70;;
11837;SDS011;5978;51.020;6.764;2023-02-28T00:14:59;4.57;;;2.95;;
11837;SDS011;5978;51.020;6.764;2023-02-28T00:17:25;7.13;;;3.10;;
11837;SDS011;5978;51.020;6.764;2023-02-28T00:19:51;10.73;;;3.70;;
11837;SDS011;5978;51.020;6.764;2023-02-28T00:22:17;2.90;;;2.70;;
11837;SDS011;5978;51.020;6.764;2023-02-28T00:24:45;4.68;;;3.10;;
11837;SDS011;5978;51.020;6.764;2023-02-28T00:27:12;4.70;;;2.63;;
11837;SDS011;5978;51.020;6.764;2023-02-28T00:29:38;2.97;;;2.65;;
11837;SDS011;5978;51.020;6.764;2023-02-28T00:32:04;4.27;;;3.00;;
11837;SDS011;5978;51.020;6.764;2023-02-28T00:34:30;10.52;;;3.58;;
11837;SDS011;5978;51.020;6.764;2023-02-28T00:36:56;3.73;;;2.33;;
11837;SDS011;5978;51.020;6.764;2023-02-28T00:39:21;3.20;;;2.90;;
11837;SDS011;5978;51.020;6.764;2023-02-28T00:41:47;3.17;;;2.77;;
11837;SDS011;5978;51.020;6.764;2023-02-28T00:44:13;4.30;;;2.73;;
11837;SDS011;5978;51.020;6.764;2023-02-28T00:46:38;4.10;;;2.97;;
11837;SDS011;5978;51.020;6.764;2023-02-28T00:49:04;4.90;;;2.80;;
11837;SDS011;5978;51.020;6.764;2023-02-28T00:51:29;5.10;;;3.37;;
11837;SDS011;5978;51.020;6.764;2023-02-28T00:53:55;2.80;;;2.60;;
11837;SDS011;5978;51.020;6.764;2023-02-28T00:56:21;3.90;;;2.70;;
11837;SDS011;5978;51.020;6.764;2023-02-28T00:58:46;2.90;;;2.70;;
11837;SDS011;5978;51.020;6.764;2023-02-28T01:01:12;3.30;;;2.60;;
11837;SDS011;5978;51.020;6.764;2023-02-28T01:03:38;9.30;;;2.57;;
11837;SDS011;5978;51.020;6.764;2023-02-28T01:06:03;2.77;;;2.57;;
11837;SDS011;5978;51.020;6.764;2023-02-28T01:08:29;2.67;;;2.50;;
11837;SDS011;5978;51.020;6.764;2023-02-28T01:10:55;6.17;;;2.80;;
11837;SDS011;5978;51.020;6.764;2023-02-28T01:13:21;7.90;;;3.00;;
11837;SDS011;5978;51.020;6.764;2023-02-28T01:15:51;3.00;;;2.45;;
11837;SDS011;5978;51.020;6.764;2023-02-28T01:18:19;5.30;;;2.83;;
11837;SDS011;5978;51.020;6.764;2023-02-28T01:20:46;4.53;;;2.53;;
11837;SDS011;5978;51.020;6.764;2023-02-28T01:23:12;2.90;;;2.30;;
11837;SDS011;5978;51.020;6.764;2023-02-28T01:25:37;2.90;;;2.60;;
11837;SDS011;5978;51.020;6.764;2023-02-28T01:28:03;3.60;;;2.70;;
11837;SDS011;5978;51.020;6.764;2023-02-28T01:30:30;5.78;;;3.80;;
11837;SDS011;5978;51.020;6.764;2023-02-28T01:32:56;2.97;;;2.73;;
11837;SDS011;5978;51.020;6.764;2023-02-28T01:35:22;3.43;;;3.17;;
11837;SDS011;5978;51.020;6.764;2023-02-28T01:37:47;2.33;;;2.10;;
11837;SDS011;5978;51.020;6.764;2023-02-28T01:40:13;2.70;;;2.50;;
11837;SDS011;5978;51.020;6.764;2023-02-28T01:42:39;3.90;;;3.10;;
11837;SDS011;5978;51.020;6.764;2023-02-28T01:45:18;3.30;;;2.70;;
11837;SDS011;5978;51.020;6.764;2023-02-28T01:47:52;6.47;;;2.63;;
11837;SDS011;5978;51.020;6.764;2023-02-28T01:50:23;4.10;;;2.10;;
11837;SDS011;5978;51.020;6.764;2023-02-28T01:52:53;3.50;;;2.53;;
11837;SDS011;5978;51.020;6.764;2023-02-28T01:55:22;3.40;;;2.92;;
11837;SDS011;5978;51.020;6.764;2023-02-28T01:57:54;3.90;;;3.15;;
11837;SDS011;5978;51.020;6.764;2023-02-28T02:00:22;2.90;;;2.50;;
11837;SDS011;5978;51.020;6.764;2023-02-28T02:02:53;3.38;;;2.67;;
11837;SDS011;5978;51.020;6.764;2023-02-28T02:05:21;3.65;;;2.53;;
11837;SDS011;5978;51.020;6.764;2023-02-28T02:07:54;3.65;;;2.80;;
11837;SDS011;5978;51.020;6.764;2023-02-28T02:10:24;6.20;;;2.63;;
11837;SDS011;5978;51.020;6.764;2023-02-28T02:27:13;3.88;;;2.63;;
11837;SDS011;5978;51.020;6.764;2023-02-28T02:33:02;2.83;;;2.42;;
11837;SDS011;5978;51.020;6.764;2023-02-28T02:38:36;2.60;;;2.40;;
11837;SDS011;5978;51.020;6.764;2023-02-28T02:44:04;6.30;;;3.03;;
11837;SDS011;5978;51.020;6.764;2023-02-28T02:46:57;3.42;;;2.45;;
11837;SDS011;5978;51.020;6.764;2023-02-28T02:49:30;3.22;;;2.50;;
11837;SDS011;5978;51.020;6.764;2023-02-28T02:51:58;4.60;;;2.55;;
11837;SDS011;5978;51.020;6.764;2023-02-28T02:54:29;4.05;;;2.72;;
11837;SDS011;5978;51.020;6.764;2023-02-28T02:56:59;2.90;;;2.60;;
11837;SDS011;5978;51.020;6.764;2023-02-28T02:59:28;3.03;;;2.40;;
11837;SDS011;5978;51.020;6.764;2023-02-28T03:01:56;4.47;;;2.60;;
11837;SDS011;5978;51.020;6.764;2023-02-28T03:04:25;2.45;;;2.00;;
11837;SDS011;5978;51.020;6.764;2023-02-28T03:06:53;2.13;;;2.03;;
11837;SDS011;5978;51.020;6.764;2023-02-28T03:09:22;3.33;;;2.53;;
11837;SDS011;5978;51.020;6.764;2023-02-28T03:11:50;2.88;;;2.05;;
11837;SDS011;5978;51.020;6.764;2023-02-28T03:17:44;2.95;;;2.75;;
11837;SDS011;5978;51.020;6.764;2023-02-28T03:31:38;2.97;;;2.50;;
11837;SDS011;5978;51.020;6.764;2023-02-28T03:36:43;3.45;;;2.55;;
11837;SDS011;5978;51.020;6.764;2023-02-28T03:39:22;3.95;;;2.75;;
11837;SDS011;5978;51.020;6.764;2023-02-28T03:42:01;2.25;;;2.13;;
11837;SDS011;5978;51.020;6.764;2023-02-28T03:44:40;3.50;;;2.40;;
11837;SDS011;5978;51.020;6.764;2023-02-28T03:47:15;3.63;;;3.33;;
11837;SDS011;5978;51.020;6.764;2023-02-28T03:49:57;3.63;;;2.55;;
11837;SDS011;5978;51.020;6.764;2023-02-28T03:52:35;3.05;;;2.45;;
11837;SDS011;5978;51.020;6.764;2023-02-28T03:55:10;4.32;;;3.08;;
11837;SDS011;5978;51.020;6.764;2023-02-28T04:00:10;5.18;;;3.65;;
11837;SDS011;5978;51.020;6.764;2023-02-28T04:02:39;5.10;;;3.60;;
11837;SDS011;5978;51.020;6.764;2023-02-28T04:05:05;5.10;;;3.50;;
11837;SDS011;5978;51.020;6.764;2023-02-28T04:07:32;5.13;;;3.60;;
11837;SDS011;5978;51.020;6.764;2023-02-28T04:09:57;6.97;;;4.20;;
11837;SDS011;5978;51.020;6.764;2023-02-28T04:12:24;7.15;;;4.20;;
11837;SDS011;5978;51.020;6.764;2023-02-28T04:14:50;4.28;;;3.85;;
11837;SDS011;5978;51.020;6.764;2023-02-28T04:17:16;4.87;;;3.50;;
11837;SDS011;5978;51.020;6.764;2023-02-28T04:19:41;8.35;;;4.25;;
11837;SDS011;5978;51.020;6.764;2023-02-28T04:22:07;5.37;;;3.57;;
11837;SDS011;5978;51.020;6.764;2023-02-28T04:24:34;9.65;;;4.68;;
11837;SDS011;5978;51.020;6.764;2023-02-28T04:27:00;5.53;;;4.13;;
11837;SDS011;5978;51.020;6.764;2023-02-28T04:29:32;13.93;;;5.10;;
11837;SDS011;5978;51.020;6.764;2023-02-28T04:31:58;4.13;;;3.65;;
11837;SDS011;5978;51.020;6.764;2023-02-28T04:34:25;6.20;;;3.22;;
11837;SDS011;5978;51.020;6.764;2023-02-28T04:36:51;5.25;;;4.60;;
11837;SDS011;5978;51.020;6.764;2023-02-28T04:39:19;14.57;;;4.38;;
11837;SDS011;5978;51.020;6.764;2023-02-28T04:41:45;6.32;;;4.30;;
11837;SDS011;5978;51.020;6.764;2023-02-28T04:44:11;5.80;;;3.80;;
11837;SDS011;5978;51.020;6.764;2023-02-28T04:46:37;4.90;;;4.20;;
11837;SDS011;5978;51.020;6.764;2023-02-28T04:49:02;9.20;;;3.80;;
11837;SDS011;5978;51.020;6.764;2023-02-28T04:51:28;4.85;;;3.60;;
11837;SDS011;5978;51.020;6.764;2023-02-28T04:53:54;9.40;;;3.63;;
11837;SDS011;5978;51.020;6.764;2023-02-28T04:56:20;3.33;;;2.70;;
11837;SDS011;5978;51.020;6.764;2023-02-28T04:58:46;3.75;;;2.95;;
11837;SDS011;5978;51.020;6.764;2023-02-28T05:01:23;5.15;;;3.80;;
11837;SDS011;5978;51.020;6.764;2023-02-28T05:03:54;2.47;;;2.33;;
11837;SDS011;5978;51.020;6.764;2023-02-28T05:06:22;5.40;;;3.20;;
11837;SDS011;5978;51.020;6.764;2023-02-28T05:08:49;5.20;;;3.45;;
11837;SDS011;5978;51.020;6.764;2023-02-28T05:11:20;3.53;;;3.07;;
11837;SDS011;5978;51.020;6.764;2023-02-28T05:13:51;3.70;;;3.40;;
11837;SDS011;5978;51.020;6.764;2023-02-28T05:16:17;3.97;;;3.00;;
11837;SDS011;5978;51.020;6.764;2023-02-28T05:18:43;4.38;;;2.90;;
11837;SDS011;5978;51.020;6.764;2023-02-28T05:23:54;4.00;;;3.13;;
11837;SDS011;5978;51.020;6.764;2023-02-28T05:26:21;3.55;;;2.97;;
11837;SDS011;5978;51.020;6.764;2023-02-28T05:28:47;3.55;;;3.00;;
11837;SDS011;5978;51.020;6.764;2023-02-28T05:31:13;4.03;;;2.70;;
11837;SDS011;5978;51.020;6.764;2023-02-28T05:33:38;2.60;;;2.40;;
11837;SDS011;5978;51.020;6.764;2023-02-28T05:36:04;3.60;;;2.93;;
11837;SDS011;5978;51.020;6.764;2023-02-28T05:38:31;3.20;;;2.90;;
11837;SDS011;5978;51.020;6.764;2023-02-28T05:40:56;2.83;;;2.63;;
11837;SDS011;5978;51.020;6.764;2023-02-28T05:43:22;3.90;;;3.23;;
11837;SDS011;5978;51.020;6.764;2023-02-28T05:45:48;4.53;;;2.70;;
11837;SDS011;5978;51.020;6.764;2023-02-28T05:48:14;3.70;;;3.00;;
11837;SDS011;5978;51.020;6.764;2023-02-28T05:50:40;3.40;;;3.10;;
11837;SDS011;5978;51.020;6.764;2023-02-28T05:53:07;4.35;;;3.45;;
11837;SDS011;5978;51.020;6.764;2023-02-28T05:55:33;3.77;;;3.13;;
11837;SDS011;5978;51.020;6.764;2023-02-28T05:58:00;2.72;;;2.53;;
11837;SDS011;5978;51.020;6.764;2023-02-28T06:00:26;11.40;;;3.30;;
11837;SDS011;5978;51.020;6.764;2023-02-28T06:02:52;5.95;;;2.70;;
11837;SDS011;5978;51.020;6.764;2023-02-28T06:05:21;2.58;;;2.40;;
11837;SDS011;5978;51.020;6.764;2023-02-28T06:07:47;3.78;;;3.20;;
11837;SDS011;5978;51.020;6.764;2023-02-28T06:10:13;3.93;;;3.57;;
11837;SDS011;5978;51.020;6.764;2023-02-28T06:12:39;5.35;;;3.53;;
11837;SDS011;5978;51.020;6.764;2023-02-28T06:15:06;3.80;;;3.38;;
11837;SDS011;5978;51.020;6.764;2023-02-28T06:17:34;4.47;;;3.05;;
11837;SDS011;5978;51.020;6.764;2023-02-28T06:19:59;5.30;;;3.30;;
11837;SDS011;5978;51.020;6.764;2023-02-28T06:22:25;4.73;;;4.03;;
11837;SDS011;5978;51.020;6.764;2023-02-28T06:24:50;5.23;;;3.03;;
11837;SDS011;5978;51.020;6.764;2023-02-28T06:27:17;4.30;;;3.17;;
11837;SDS011;5978;51.020;6.764;2023-02-28T06:29:45;3.00;;;2.72;;
11837;SDS011;5978;51.020;6.764;2023-02-28T06:32:10;5.53;;;3.37;;
11837;SDS011;5978;51.020;6.764;2023-02-28T06:34:36;3.90;;;2.20;;
11837;SDS011;5978;51.020;6.764;2023-02-28T06:37:01;3.07;;;2.77;;
11837;SDS011;5978;51.020;6.764;2023-02-28T06:39:28;5.97;;;2.83;;
11837;SDS011;5978;51.020;6.764;2023-02-28T06:41:54;3.95;;;3.53;;
11837;SDS011;5978;51.020;6.764;2023-02-28T06:44:20;3.40;;;3.10;;
11837;SDS011;5978;51.020;6.764;2023-02-28T06:46:46;5.10;;;2.90;;
11837;SDS011;5978;51.020;6.764;2023-02-28T06:49:12;3.37;;;3.07;;
11837;SDS011;5978;51.020;6.764;2023-02-28T06:51:39;4.77;;;3.53;;
11837;SDS011;5978;51.020;6.764;2023-02-28T06:54:06;3.13;;;2.92;;
11837;SDS011;5978;51.020;6.764;2023-02-28T06:56:33;5.07;;;3.60;;
11837;SDS011;5978;51.020;6.764;2023-02-28T06:58:59;2.90;;;2.60;;
11837;SDS011;5978;51.020;6.764;2023-02-28T07:01:25;4.30;;;3.23;;
11837;SDS011;5978;51.020;6.764;2023-02-28T07:03:52;4.55;;;3.13;;
11837;SDS011;5978;51.020;6.764;2023-02-28T07:06:19;2.63;;;2.42;;
11837;SDS011;5978;51.020;6.764;2023-02-28T07:08:47;3.10;;;2.70;;
11837;SDS011;5978;51.020;6.764;2023-02-28T07:11:13;5.10;;;3.35;;
11837;SDS011;5978;51.020;6.764;2023-02-28T07:13:39;2.90;;;2.70;;
11837;SDS011;5978;51.020;6.764;2023-02-28T07:16:05;5.07;;;2.97;;
11837;SDS011;5978;51.020;6.764;2023-02-28T07:18:34;6.13;;;3.28;;
11837;SDS011;5978;51.020;6.764;2023-02-28T07:21:04;3.45;;;3.15;;
11837;SDS011;5978;51.020;6.764;2023-02-28T07:23:31;4.70;;;3.53;;
11837;SDS011;5978;51.020;6.764;2023-02-28T07:25:57;4.95;;;3.58;;
11837;SDS011;5978;51.020;6.764;2023-02-28T07:28:23;3.20;;;2.80;;
11837;SDS011;5978;51.020;6.764;2023-02-28T07:30:49;3.25;;;2.95;;
11837;SDS011;5978;51.020;6.764;2023-02-28T07:33:15;7.53;;;2.93;;
11837;SDS011;5978;51.020;6.764;2023-02-28T07:35:41;3.57;;;2.80;;
11837;SDS011;5978;51.020;6.764;2023-02-28T07:38:07;3.67;;;3.37;;
11837;SDS011;5978;51.020;6.764;2023-02-28T07:40:33;3.97;;;2.92;;
11837;SDS011;5978;51.020;6.764;2023-02-28T07:43:00;3.63;;;2.65;;
11837;SDS011;5978;51.020;6.764;2023-02-28T07:45:26;5.53;;;3.40;;
11837;SDS011;5978;51.020;6.764;2023-02-28T07:47:53;5.10;;;3.13;;
11837;SDS011;5978;51.020;6.764;2023-02-28T07:50:20;3.00;;;2.80;;
11837;SDS011;5978;51.020;6.764;2023-02-28T07:52:46;3.30;;;3.08;;
11837;SDS011;5978;51.020;6.764;2023-02-28T07:55:11;3.30;;;3.00;;
11837;SDS011;5978;51.020;6.764;2023-02-28T07:57:38;3.30;;;3.00;;
11837;SDS011;5978;51.020;6.764;2023-02-28T08:00:05;3.70;;;2.80;;
11837;SDS011;5978;51.020;6.764;2023-02-28T08:02:37;2.78;;;2.58;;
11837;SDS011;5978;51.020;6.764;2023-02-28T08:05:03;2.60;;;2.40;;
11837;SDS011;5978;51.020;6.764;2023-02-28T08:07:29;3.47;;;2.92;;
11837;SDS011;5978;51.020;6.764;2023-02-28T08:09:55;2.77;;;2.57;;
11837;SDS011;5978;51.020;6.764;2023-02-28T08:12:20;2.60;;;2.40;;
11837;SDS011;5978;51.020;6.764;2023-02-28T08:14:46;5.47;;;2.80;;
11837;SDS011;5978;51.020;6.764;2023-02-28T08:17:11;2.70;;;2.50;;
11837;SDS011;5978;51.020;6.764;2023-02-28T08:19:37;5.60;;;3.10;;
11837;SDS011;5978;51.020;6.764;2023-02-28T08:22:03;2.77;;;2.57;;
11837;SDS011;5978;51.020;6.764;2023-02-28T08:24:28;4.57;;;2.20;;
11837;SDS011;5978;51.020;6.764;2023-02-28T08:26:54;3.10;;;2.90;;
11837;SDS011;5978;51.020;6.764;2023-02-28T08:29:20;2.40;;;2.10;;
11837;SDS011;5978;51.020;6.764;2023-02-28T08:31:45;2.70;;;2.50;;
11837;SDS011;5978;51.020;6.764;2023-02-28T08:34:12;3.20;;;2.70;;
11837;SDS011;5978;51.020;6.764;2023-02-28T08:36:39;6.18;;;3.40;;
11837;SDS011;5978;51.020;6.764;2023-02-28T08:39:05;3.50;;;3.15;;
11837;SDS011;5978;51.020;6.764;2023-02-28T08:41:32;3.47;;;3.17;;
11837;SDS011;5978;51.020;6.764;2023-02-28T08:43:58;3.63;;;3.33;;
11837;SDS011;5978;51.020;6.764;2023-02-28T08:46:25;3.25;;;1.95;;
11837;SDS011;5978;51.020;6.764;2023-02-28T08:48:53;4.27;;;2.30;;
11837;SDS011;5978;51.020;6.764;2023-02-28T08:51:20;3.67;;;2.83;;
11837;SDS011;5978;51.020;6.764;2023-02-28T08:53:51;3.25;;;2.80;;
11837;SDS011;5978;51.020;6.764;2023-02-28T08:56:17;2.90;;;2.28;;
11837;SDS011;5978;51.020;6.764;2023-02-28T08:58:43;2.95;;;2.13;;
11837;SDS011;5978;51.020;6.764;2023-02-28T09:01:14;3.05;;;2.78;;
11837;SDS011;5978;51.020;6.764;2023-02-28T09:03:42;2.33;;;2.13;;
11837;SDS011;5978;51.020;6.764;2023-02-28T09:06:08;3.15;;;2.28;;
11837;SDS011;5978;51.020;6.764;2023-02-28T09:08:35;7.38;;;1.85;;
11837;SDS011;5978;51.020;6.764;2023-02-28T09:11:01;2.35;;;2.08;;
11837;SDS011;5978;51.020;6.764;2023-02-28T09:13:27;2.08;;;1.70;;
11837;SDS011;5978;51.020;6.764;2023-02-28T09:15:54;2.17;;;2.03;;
11837;SDS011;5978;51.020;6.764;2023-02-28T09:18:22;2.67;;;2.08;;
11837;SDS011;5978;51.020;6.764;2023-02-28T09:20:47;2.30;;;1.93;;
11837;SDS011;5978;51.020;6.764;2023-02-28T09:23:13;2.50;;;2.30;;
11837;SDS011;5978;51.020;6.764;2023-02-28T09:25:44;3.30;;;2.30;;
11837;SDS011;5978;51.020;6.764;2023-02-28T09:28:11;1.88;;;1.55;;
11837;SDS011;5978;51.020;6.764;2023-02-28T09:30:37;1.73;;;1.50;;
11837;SDS011;5978;51.020;6.764;2023-02-28T09:33:03;3.67;;;2.10;;
11837;SDS011;5978;51.020;6.764;2023-02-28T09:35:28;3.25;;;2.05;;
11837;SDS011;5978;51.020;6.764;2023-02-28T09:37:55;2.20;;;2.00;;
11837;SDS011;5978;51.020;6.764;2023-02-28T09:40:24;3.15;;;2.38;;
11837;SDS011;5978;51.020;6.764;2023-02-28T09:42:51;2.33;;;2.13;;
11837;SDS011;5978;51.020;6.764;2023-02-28T09:48:03;2.97;;;2.72;;
11837;SDS011;5978;51.020;6.764;2023-02-28T09:50:59;2.67;;;2.47;;
11837;SDS011;5978;51.020;6.764;2023-02-28T09:53:30;2.28;;;2.08;;
11837;SDS011;5978;51.020;6.764;2023-02-28T09:55:59;3.28;;;2.35;;
11837;SDS011;5978;51.020;6.764;2023-02-28T09:58:37;2.80;;;2.40;;
11837;SDS011;5978;51.020;6.764;2023-02-28T10:07:10;3.50;;;3.20;;
11837;SDS011;5978;51.020;6.764;2023-02-28T10:09:43;2.97;;;2.47;;
11837;SDS011;5978;51.020;6.764;2023-02-28T10:12:12;2.83;;;2.58;;
11837;SDS011;5978;51.020;6.764;2023-02-28T10:14:41;3.10;;;2.83;;
11837;SDS011;5978;51.020;6.764;2023-02-28T10:17:11;3.03;;;2.50;;
11837;SDS011;5978;51.020;6.764;2023-02-28T10:19:55;5.28;;;2.90;;
11837;SDS011;5978;51.020;6.764;2023-02-28T10:22:40;2.42;;;2.22;;
11837;SDS011;5978;51.020;6.764;2023-02-28T10:25:19;3.22;;;2.90;;
11837;SDS011;5978;51.020;6.764;2023-02-28T10:27:54;2.88;;;2.55;;
11837;SDS011;5978;51.020;6.764;2023-02-28T10:30:25;3.35;;;3.08;;
11837;SDS011;5978;51.020;6.764;2023-02-28T10:32:51;3.87;;;2.40;;
11837;SDS011;5978;51.020;6.764;2023-02-28T10:35:22;3.20;;;2.80;;
11837;SDS011;5978;51.020;6.764;2023-02-28T10:37:56;2.83;;;2.60;;
11837;SDS011;5978;51.020;6.764;2023-02-28T10:45:21;2.90;;;2.70;;
11837;SDS011;5978;51.020;6.764;2023-02-28T10:47:55;3.78;;;2.97;;
11837;SDS011;5978;51.020;6.764;2023-02-28T11:01:20;3.50;;;2.67;;
11837;SDS011;5978;51.020;6.764;2023-02-28T11:03:48;2.67;;;2.45;;
11837;SDS011;5978;51.020;6.764;2023-02-28T11:06:33;3.03;;;2.83;;
11837;SDS011;5978;51.020;6.764;2023-02-28T11:09:03;3.35;;;3.05;;
11837;SDS011;5978;51.020;6.764;2023-02-28T11:11:44;6.03;;;2.67;;
11837;SDS011;5978;51.020;6.764;2023-02-28T11:14:21;2.70;;;2.50;;
11837;SDS011;5978;51.020;6.764;2023-02-28T11:16:52;3.58;;;2.33;;
11837;SDS011;5978;51.020;6.764;2023-02-28T11:19:23;3.25;;;2.50;;
11837;SDS011;5978;51.020;6.764;2023-02-28T11:22:02;6.95;;;2.80;;
11837;SDS011;5978;51.020;6.764;2023-02-28T11:24:31;3.67;;;2.45;;
11837;SDS011;5978;51.020;6.764;2023-02-28T11:27:02;3.30;;;3.00;;
11837;SDS011;5978;51.020;6.764;2023-02-28T11:29:28;2.93;;;2.67;;
11837;SDS011;5978;51.020;6.764;2023-02-28T11:32:39;2.95;;;2.63;;
11837;SDS011;5978;51.020;6.764;2023-02-28T11:37:35;3.50;;;2.43;;
11837;SDS011;5978;51.020;6.764;2023-02-28T11:40:01;2.97;;;2.70;;
11837;SDS011;5978;51.020;6.764;2023-02-28T11:42:38;3.23;;;2.93;;
11837;SDS011;5978;51.020;6.764;2023-02-28T11:48:02;2.87;;;2.50;;
11837;SDS011;5978;51.020;6.764;2023-02-28T11:56:29;3.10;;;2.80;;
11837;SDS011;5978;51.020;6.764;2023-02-28T12:07:31;3.67;;;3.33;;
11837;SDS011;5978;51.020;6.764;2023-02-28T12:13:43;3.40;;;3.10;;
11837;SDS011;5978;51.020;6.764;2023-02-28T12:28:49;3.13;;;2.70;;
11837;SDS011;5978;51.020;6.764;2023-02-28T12:31:24;4.70;;;4.30;;
11837;SDS011;5978;51.020;6.764;2023-02-28T12:33:57;3.10;;;2.80;;
11837;SDS011;5978;51.020;6.764;2023-02-28T12:36:27;3.67;;;2.63;;
11837;SDS011;5978;51.020;6.764;2023-02-28T12:38:58;3.07;;;2.80;;
11837;SDS011;5978;51.020;6.764;2023-02-28T12:41:33;3.80;;;3.47;;
11837;SDS011;5978;51.020;6.764;2023-02-28T12:44:14;3.90;;;3.47;;
11837;SDS011;5978;51.020;6.764;2023-02-28T12:46:46;2.80;;;2.60;;
11837;SDS011;5978;51.020;6.764;2023-02-28T12:51:46;4.53;;;3.40;;
11837;SDS011;5978;51.020;6.764;2023-02-28T13:05:01;4.00;;;3.43;;
11837;SDS011;5978;51.020;6.764;2023-02-28T13:08:03;5.40;;;3.63;;
11837;SDS011;5978;51.020;6.764;2023-02-28T13:10:44;3.60;;;3.03;;
11837;SDS011;5978;51.020;6.764;2023-02-28T13:13:15;5.17;;;3.03;;
11837;SDS011;5978;51.020;6.764;2023-02-28T13:15:56;3.70;;;3.40;;
11837;SDS011;5978;51.020;6.764;2023-02-28T13:18:29;4.20;;;3.80;;
11837;SDS011;5978;51.020;6.764;2023-02-28T13:20:57;4.00;;;3.10;;
11837;SDS011;5978;51.020;6.764;2023-02-28T13:26:12;4.30;;;3.40;;
11837;SDS011;5978;51.020;6.764;2023-02-28T13:31:25;3.73;;;3.43;;
11837;SDS011;5978;51.020;6.764;2023-02-28T13:38:57;3.93;;;3.50;;
11837;SDS011;5978;51.020;6.764;2023-02-28T13:43:59;3.77;;;3.30;;
11837;SDS011;5978;51.020;6.764;2023-02-28T13:49:23;4.80;;;4.27;;
11837;SDS011;5978;51.020;6.764;2023-02-28T13:51:53;4.40;;;3.63;;
11837;SDS011;5978;51.020;6.764;2023-02-28T13:57:59;3.73;;;3.27;;
11837;SDS011;5978;51.020;6.764;2023-02-28T14:06:18;3.80;;;3.40;;
11837;SDS011;5978;51.020;6.764;2023-02-28T14:08:59;5.10;;;3.70;;
11837;SDS011;5978;51.020;6.764;2023-02-28T14:11:48;3.10;;;2.90;;
11837;SDS011;5978;51.020;6.764;2023-02-28T14:17:08;4.10;;;3.70;;
11837;SDS011;5978;51.020;6.764;2023-02-28T14:19:39;3.50;;;3.30;;
11837;SDS011;5978;51.020;6.764;2023-02-28T14:30:52;3.60;;;3.10;;
11837;SDS011;5978;51.020;6.764;2023-02-28T14:41:22;3.60;;;3.30;;
11837;SDS011;5978;51.020;6.764;2023-02-28T14:43:49;4.67;;;3.80;;
11837;SDS011;5978;51.020;6.764;2023-02-28T14:46:16;4.47;;;3.77;;
11837;SDS011;5978;51.020;6.764;2023-02-28T14:48:47;4.50;;;4.10;;
11837;SDS011;5978;51.020;6.764;2023-02-28T14:51:19;4.20;;;3.90;;
11837;SDS011;5978;51.020;6.764;2023-02-28T14:53:48;6.97;;;3.43;;
11837;SDS011;5978;51.020;6.764;2023-02-28T14:56:30;5.90;;;3.93;;
11837;SDS011;5978;51.020;6.764;2023-02-28T14:59:05;4.20;;;3.80;;
11837;SDS011;5978;51.020;6.764;2023-02-28T15:01:46;3.80;;;3.50;;
11837;SDS011;5978;51.020;6.764;2023-02-28T15:04:12;3.70;;;3.33;;
11837;SDS011;5978;51.020;6.764;2023-02-28T15:07:06;3.83;;;3.50;;
11837;SDS011;5978;51.020;6.764;2023-02-28T15:09:33;3.97;;;3.67;;
11837;SDS011;5978;51.020;6.764;2023-02-28T15:11:58;4.30;;;3.90;;
11837;SDS011;5978;51.020;6.764;2023-02-28T15:14:24;8.30;;;3.40;;
11837;SDS011;5978;51.020;6.764;2023-02-28T15:16:55;3.60;;;3.40;;
11837;SDS011;5978;51.020;6.764;2023-02-28T15:19:27;4.50;;;3.70;;
11837;SDS011;5978;51.020;6.764;2023-02-28T15:22:03;4.67;;;3.53;;
11837;SDS011;5978;51.020;6.764;2023-02-28T15:24:39;5.07;;;3.23;;
11837;SDS011;5978;51.020;6.764;2023-02-28T15:27:12;3.67;;;3.00;;
11837;SDS011;5978;51.020;6.764;2023-02-28T15:29:48;4.50;;;4.10;;
11837;SDS011;5978;51.020;6.764;2023-02-28T15:32:35;3.60;;;3.30;;
11837;SDS011;5978;51.020;6.764;2023-02-28T15:35:25;3.93;;;3.63;;
11837;SDS011;5978;51.020;6.764;2023-02-28T15:37:57;4.10;;;3.40;;
11837;SDS011;5978;51.020;6.764;2023-02-28T15:40:53;4.00;;;3.70;;
11837;SDS011;5978;51.020;6.764;2023-02-28T15:43:27;4.40;;;4.00;;
11837;SDS011;5978;51.020;6.764;2023-02-28T15:46:06;3.17;;;2.70;;
11837;SDS011;5978;51.020;6.764;2023-02-28T15:49:17;4.10;;;3.47;;
11837;SDS011;5978;51.020;6.764;2023-02-28T15:51:29;4.90;;;3.73;;
11837;SDS011;5978;51.020;6.764;2023-02-28T15:54:04;5.63;;;4.90;;
11837;SDS011;5978;51.020;6.764;2023-02-28T15:56:38;3.50;;;3.20;;
11837;SDS011;5978;51.020;6.764;2023-02-28T15:59:27;3.60;;;3.30;;
11837;SDS011;5978;51.020;6.764;2023-02-28T16:04:35;3.50;;;3.17;;
11837;SDS011;5978;51.020;6.764;2023-02-28T16:07:03;4.30;;;3.80;;
11837;SDS011;5978;51.020;6.764;2023-02-28T16:09:30;3.70;;;3.40;;
11837;SDS011;5978;51.020;6.764;2023-02-28T16:11:59;4.90;;;4.50;;
11837;SDS011;5978;51.020;6.764;2023-02-28T16:14:26;3.85;;;3.55;;
11837;SDS011;5978;51.020;6.764;2023-02-28T16:17:05;4.45;;;3.05;;
11837;SDS011;5978;51.020;6.764;2023-02-28T16:19:33;4.20;;;3.67;;
11837;SDS011;5978;51.020;6.764;2023-02-28T16:21:59;4.20;;;3.80;;
11837;SDS011;5978;51.020;6.764;2023-02-28T16:24:26;3.90;;;3.00;;
11837;SDS011;5978;51.020;6.764;2023-02-28T16:26:52;4.17;;;3.17;;
11837;SDS011;5978;51.020;6.764;2023-02-28T16:29:26;9.90;;;7.07;;
11837;SDS011;5978;51.020;6.764;2023-02-28T16:32:01;21.73;;;14.38;;
11837;SDS011;5978;51.020;6.764;2023-02-28T16:34:30;21.05;;;12.50;;
11837;SDS011;5978;51.020;6.764;2023-02-28T16:36:56;5.27;;;4.20;;
11837;SDS011;5978;51.020;6.764;2023-02-28T16:39:21;6.90;;;5.37;;
11837;SDS011;5978;51.020;6.764;2023-02-28T16:41:47;21.67;;;14.83;;
11837;SDS011;5978;51.020;6.764;2023-02-28T16:47:00;6.50;;;4.47;;
11837;SDS011;5978;51.020;6.764;2023-02-28T16:49:26;4.78;;;4.10;;
11837;SDS011;5978;51.020;6.764;2023-02-28T16:51:53;5.15;;;4.65;;
11837;SDS011;5978;51.020;6.764;2023-02-28T16:54:19;9.33;;;5.90;;
11837;SDS011;5978;51.020;6.764;2023-02-28T16:56:47;5.00;;;4.50;;
11837;SDS011;5978;51.020;6.764;2023-02-28T16:59:13;4.80;;;4.40;;
11837;SDS011;5978;51.020;6.764;2023-02-28T17:01:43;4.50;;;4.10;;
11837;SDS011;5978;51.020;6.764;2023-02-28T17:04:10;5.80;;;4.80;;
11837;SDS011;5978;51.020;6.764;2023-02-28T17:06:36;5.40;;;4.57;;
11837;SDS011;5978;51.020;6.764;2023-02-28T17:09:02;4.10;;;3.57;;
11837;SDS011;5978;51.020;6.764;2023-02-28T17:11:28;5.50;;;4.60;;
11837;SDS011;5978;51.020;6.764;2023-02-28T17:13:53;4.73;;;4.30;;
11837;SDS011;5978;51.020;6.764;2023-02-28T17:18:53;5.30;;;4.80;;
11837;SDS011;5978;51.020;6.764;2023-02-28T17:21:21;4.65;;;4.03;;
11837;SDS011;5978;51.020;6.764;2023-02-28T17:23:47;4.97;;;4.57;;
11837;SDS011;5978;51.020;6.764;2023-02-28T17:26:16;5.30;;;4.67;;
11837;SDS011;5978;51.020;6.764;2023-02-28T17:28:49;6.25;;;4.75;;
11837;SDS011;5978;51.020;6.764;2023-02-28T17:31:16;5.63;;;5.13;;
11837;SDS011;5978;51.020;6.764;2023-02-28T17:33:42;6.43;;;5.40;;
11837;SDS011;5978;51.020;6.764;2023-02-28T17:36:15;10.95;;;6.00;;
11837;SDS011;5978;51.020;6.764;2023-02-28T17:38:43;6.70;;;5.15;;
11837;SDS011;5978;51.020;6.764;2023-02-28T17:41:11;7.40;;;6.20;;
11837;SDS011;5978;51.020;6.764;2023-02-28T17:43:37;7.82;;;4.35;;
11837;SDS011;5978;51.020;6.764;2023-02-28T17:46:03;9.10;;;5.57;;
11837;SDS011;5978;51.020;6.764;2023-02-28T17:48:30;5.95;;;4.63;;
11837;SDS011;5978;51.020;6.764;2023-02-28T17:50:57;8.02;;;5.30;;
11837;SDS011;5978;51.020;6.764;2023-02-28T17:53:22;7.10;;;5.07;;
11837;SDS011;5978;51.020;6.764;2023-02-28T17:55:49;7.77;;;5.40;;
11837;SDS011;5978;51.020;6.764;2023-02-28T17:58:15;6.85;;;5.60;;
11837;SDS011;5978;51.020;6.764;2023-02-28T18:00:41;8.45;;;5.00;;
11837;SDS011;5978;51.020;6.764;2023-02-28T18:03:07;8.20;;;4.70;;
11837;SDS011;5978;51.020;6.764;2023-02-28T18:05:34;6.93;;;4.95;;